Time,TemperatureF,DewpointF,PressureIn,WindDirection,WindDirectionDegrees,WindSpeedMPH,WindSpeedGustMPH,Humidity,HourlyPrecipIn,Conditions,Clouds,dailyrainin,SoftwareType,DateUTC
2013-06-15 00:04:00,82.5,78.6,29.94,ESE,112,9.8,13.3,88,0.00,CLR,,0.00,WeatherDisplay:10.37,2013-06-15 05:04:00,
2013-06-15 00:09:00,82.4,78.5,29.94,ESE,123,6.2,15.7,88,0.00,CLR,,0.00,WeatherDisplay:10.37,2013-06-15 05:09:00,
2013-06-15 00:14:00,82.5,78.6,29.94,ENE,76,8.8,12.7,88,0.00,CLR,,0.00,WeatherDisplay:10.37,2013-06-15 05:14:00,
2013-06-15 00:19:00,82.4,78.5,29.94,ESE,112,7.9,15.2,88,0.00,CLR,,0.00,WeatherDisplay:10.37,2013-06-15 05:19:00,
2013-06-15 00:24:00,82.4,78.8,29.94,SSE,168,9.6,11.6,89,0.00,CLR,,0.00,WeatherDisplay:10.37,2013-06-15 05:24:00,
2013-06-15 00:29:00,82.4,78.8,29.94,ESE,106,9.3,13.8,89,0.00,CLR,,0.00,WeatherDisplay:10.37,2013-06-15 05:29:00,
2013-06-15 00:35:00,82.4,78.5,29.94,SSE,161,8.7,11.5,88,0.00,CLR,,0.00,WeatherDisplay:10.37,2013-06-15 05:35:00,
2013-06-15 00:40:00,82.3,78.4,29.94,SE,128,8.7,12.7,88,0.00,CLR,,0.00,WeatherDisplay:10.37,2013-06-15 05:40:00,
2013-06-15 00:45:00,82.4,78.5,29.94,ESE,121,11.5,15.0,88,0.00,CLR,,0.00,WeatherDisplay:10.37,2013-06-15 05:45:00,
2013-06-15 00:50:00,82.5,78.6,29.94,ESE,116,9.2,13.8,88,0.00,CLR,,0.00,WeatherDisplay:10.37,2013-06-15 05:50:00,
2013-06-15 00:55:00,82.5,78.6,29.93,SSE,155,6.7,10.6,88,0.00,CLR,,0.00,WeatherDisplay:10.37,2013-06-15 05:55:00,
2013-06-15 01:00:00,82.4,78.5,29.93,SE,137,10.1,17.3,88,0.00,CLR,,0.00,WeatherDisplay:10.37,2013-06-15 06:00:00,
2013-06-15 01:05:00,82.4,78.5,29.93,South,169,9.1,14.1,88,0.00,CLR,,0.00,WeatherDisplay:10.37,2013-06-15 06:05:00,
2013-06-15 01:10:00,82.5,78.6,29.94,SE,136,7.8,11.5,88,0.00,CLR,,0.00,WeatherDisplay:10.37,2013-06-15 06:10:00,
2013-06-15 01:15:00,82.4,78.5,29.93,SSE,150,9.0,11.5,88,0.00,CLR,,0.00,WeatherDisplay:10.37,2013-06-15 06:15:00,
2013-06-15 01:20:00,82.2,77.9,29.93,SE,128,10.7,16.1,87,0.00,CLR,,0.00,WeatherDisplay:10.37,2013-06-15 06:20:00,
2013-06-15 01:25:00,82.3,78.0,29.93,SE,140,10.6,15.3,87,0.00,CLR,,0.00,WeatherDisplay:10.37,2013-06-15 06:25:00,
2013-06-15 01:30:00,82.4,78.1,29.93,SSE,151,10.4,15.9,87,0.00,CLR,,0.00,WeatherDisplay:10.37,2013-06-15 06:30:00,
2013-06-15 01:35:00,82.3,78.0,29.93,ESE,121,9.8,14.1,87,0.00,CLR,,0.00,WeatherDisplay:10.37,2013-06-15 06:35:00,
2013-06-15 01:40:00,82.4,78.5,29.93,SSE,150,9.8,12.9,88,0.00,CLR,,0.00,WeatherDisplay:10.37,2013-06-15 06:40:00,
2013-06-15 01:45:00,82.4,78.5,29.93,South,174,8.0,15.4,88,0.00,CLR,,0.00,WeatherDisplay:10.37,2013-06-15 06:45:00,
2013-06-15 01:50:00,82.4,78.8,29.92,SE,143,9.9,15.0,89,0.00,CLR,,0.00,WeatherDisplay:10.37,2013-06-15 06:50:00,
2013-06-15 01:55:00,82.3,78.4,29.92,SSE,160,8.0,12.9,88,0.00,CLR,,0.00,WeatherDisplay:10.37,2013-06-15 06:55:00,
2013-06-15 02:00:00,82.2,78.6,29.92,SSE,168,8.6,12.7,89,0.00,CLR,,0.00,WeatherDisplay:10.37,2013-06-15 07:00:00,
2013-06-15 02:05:00,82.3,78.7,29.92,SSE,148,9.0,14.5,89,0.00,CLR,,0.00,WeatherDisplay:10.37,2013-06-15 07:05:00,
2013-06-15 02:10:00,82.1,78.5,29.92,SSE,168,9.9,13.8,89,0.00,CLR,,0.00,WeatherDisplay:10.37,2013-06-15 07:10:00,
2013-06-15 02:15:00,82.1,78.2,29.92,SSE,151,7.4,12.7,88,0.00,CLR,,0.00,WeatherDisplay:10.37,2013-06-15 07:15:00,
2013-06-15 02:20:00,82.1,78.5,29.91,South,178,8.3,15.0,89,0.00,CLR,,0.00,WeatherDisplay:10.37,2013-06-15 07:20:00,
2013-06-15 02:25:00,82.1,78.5,29.91,SE,124,8.5,15.0,89,0.00,CLR,,0.00,WeatherDisplay:10.37,2013-06-15 07:25:00,
2013-06-15 02:30:00,82.0,78.4,29.91,SSE,148,9.8,13.8,89,0.00,CLR,,0.00,WeatherDisplay:10.37,2013-06-15 07:30:00,
2013-06-15 02:35:00,82.0,78.8,29.91,SE,144,8.6,13.8,90,0.00,CLR,,0.00,WeatherDisplay:10.37,2013-06-15 07:35:00,
2013-06-15 02:40:00,81.9,78.7,29.91,SSE,165,9.0,15.0,90,0.00,CLR,,0.00,WeatherDisplay:10.37,2013-06-15 07:40:00,
2013-06-15 02:45:00,81.9,78.7,29.90,SSE,155,8.0,15.0,90,0.00,CLR,,0.00,WeatherDisplay:10.37,2013-06-15 07:45:00,
2013-06-15 02:50:00,81.8,78.6,29.90,SE,136,9.0,13.7,90,0.00,CLR,,0.00,WeatherDisplay:10.37,2013-06-15 07:50:00,
2013-06-15 02:56:00,81.7,78.5,29.90,SE,131,11.0,15.0,90,0.00,CLR,,0.00,WeatherDisplay:10.37,2013-06-15 07:56:00,
2013-06-15 03:01:00,81.8,78.6,29.90,SE,131,10.1,15.0,90,0.00,CLR,,0.00,WeatherDisplay:10.37,2013-06-15 08:01:00,
2013-06-15 03:06:00,81.8,78.6,29.90,South,176,8.8,13.8,90,0.00,CLR,,0.00,WeatherDisplay:10.37,2013-06-15 08:06:00,
2013-06-15 03:11:00,81.8,78.6,29.90,ESE,121,10.5,15.4,90,0.00,CLR,,0.00,WeatherDisplay:10.37,2013-06-15 08:11:00,
2013-06-15 03:16:00,81.8,78.6,29.90,SSE,148,9.8,15.1,90,0.00,CLR,,0.00,WeatherDisplay:10.37,2013-06-15 08:16:00,
2013-06-15 03:21:00,81.8,78.6,29.90,SE,133,9.7,15.0,90,0.00,CLR,,0.00,WeatherDisplay:10.37,2013-06-15 08:21:00,
2013-06-15 03:26:00,81.7,78.1,29.90,SSE,161,10.1,17.3,89,0.00,CLR,,0.00,WeatherDisplay:10.37,2013-06-15 08:26:00,
2013-06-15 03:31:00,81.7,77.8,29.89,SE,133,9.1,16.1,88,0.00,CLR,,0.00,WeatherDisplay:10.37,2013-06-15 08:31:00,
2013-06-15 03:36:00,81.8,78.2,29.90,SSE,167,8.9,16.1,89,0.00,CLR,,0.00,WeatherDisplay:10.37,2013-06-15 08:36:00,
2013-06-15 03:41:00,81.9,78.3,29.89,SSE,148,10.8,16.5,89,0.00,CLR,,0.00,WeatherDisplay:10.37,2013-06-15 08:41:00,
2013-06-15 03:46:00,81.8,78.2,29.89,SSE,150,9.0,15.0,89,0.00,CLR,,0.00,WeatherDisplay:10.37,2013-06-15 08:46:00,
2013-06-15 03:51:00,81.8,78.2,29.89,SE,137,9.4,13.8,89,0.00,CLR,,0.00,WeatherDisplay:10.37,2013-06-15 08:51:00,
2013-06-15 03:56:00,81.8,78.2,29.89,ESE,114,9.4,15.0,89,0.00,CLR,,0.00,WeatherDisplay:10.37,2013-06-15 08:56:00,
2013-06-15 04:01:00,81.7,77.8,29.90,SSE,168,12.3,16.1,88,0.00,CLR,,0.00,WeatherDisplay:10.37,2013-06-15 09:01:00,
2013-06-15 04:06:00,81.6,77.7,29.90,SSE,148,10.7,16.2,88,0.00,CLR,,0.00,WeatherDisplay:10.37,2013-06-15 09:06:00,
2013-06-15 04:11:00,81.7,77.8,29.90,SSE,148,10.6,16.1,88,0.00,CLR,,0.00,WeatherDisplay:10.37,2013-06-15 09:11:00,
2013-06-15 04:16:00,81.6,77.4,29.91,SE,143,10.0,13.8,87,0.00,CLR,,0.00,WeatherDisplay:10.37,2013-06-15 09:16:00,
2013-06-15 04:21:00,81.6,77.0,29.91,ESE,107,9.0,13.8,86,0.00,CLR,,0.00,WeatherDisplay:10.37,2013-06-15 09:21:00,
2013-06-15 04:26:00,81.7,77.1,29.91,SE,145,9.7,15.0,86,0.00,CLR,,0.00,WeatherDisplay:10.37,2013-06-15 09:26:00,
2013-06-15 04:31:00,81.8,77.5,29.91,South,185,7.1,12.7,87,0.00,CLR,,0.00,WeatherDisplay:10.37,2013-06-15 09:31:00,
2013-06-15 04:36:00,81.7,77.5,29.91,SE,141,8.9,12.6,87,0.00,CLR,,0.00,WeatherDisplay:10.37,2013-06-15 09:36:00,
2013-06-15 04:41:00,81.6,77.4,29.91,South,176,10.9,13.7,87,0.00,CLR,,0.00,WeatherDisplay:10.37,2013-06-15 09:41:00,
2013-06-15 04:46:00,81.6,77.7,29.91,SSE,148,8.7,13.8,88,0.00,CLR,,0.00,WeatherDisplay:10.37,2013-06-15 09:46:00,
2013-06-15 04:51:00,81.5,77.3,29.91,SSE,155,9.3,17.3,87,0.00,CLR,,0.00,WeatherDisplay:10.37,2013-06-15 09:51:00,
2013-06-15 04:56:00,81.4,77.2,29.90,SE,144,11.8,16.1,87,0.00,CLR,,0.00,WeatherDisplay:10.37,2013-06-15 09:56:00,
2013-06-15 05:01:00,81.5,77.3,29.90,SSE,157,9.6,17.3,87,0.00,CLR,,0.00,WeatherDisplay:10.37,2013-06-15 10:01:00,
2013-06-15 05:06:00,81.6,77.4,29.90,SSE,157,9.5,14.9,87,0.00,CLR,,0.00,WeatherDisplay:10.37,2013-06-15 10:06:00,
2013-06-15 05:11:00,81.6,77.4,29.89,SSE,152,10.3,14.1,87,0.00,CLR,,0.00,WeatherDisplay:10.37,2013-06-15 10:11:00,
2013-06-15 05:16:00,81.5,77.3,29.90,SE,128,9.3,13.8,87,0.00,CLR,,0.00,WeatherDisplay:10.37,2013-06-15 10:16:00,
2013-06-15 05:21:00,81.5,77.3,29.90,SE,136,10.0,15.4,87,0.00,CLR,,0.00,WeatherDisplay:10.37,2013-06-15 10:21:00,
2013-06-15 05:26:00,81.5,77.3,29.90,SSE,147,10.9,15.7,87,0.00,CLR,,0.00,WeatherDisplay:10.37,2013-06-15 10:26:00,
2013-06-15 05:31:00,81.5,77.3,29.91,SE,140,9.9,16.1,87,0.00,CLR,,0.00,WeatherDisplay:10.37,2013-06-15 10:31:00,
2013-06-15 05:36:00,81.5,77.6,29.91,South,181,9.8,12.7,88,0.00,CLR,,0.00,WeatherDisplay:10.37,2013-06-15 10:36:00,
2013-06-15 05:41:00,81.5,77.6,29.91,SE,145,10.6,14.6,88,0.00,CLR,,0.00,WeatherDisplay:10.37,2013-06-15 10:41:00,
2013-06-15 05:46:00,81.5,77.6,29.91,SSE,160,9.2,13.8,88,0.00,CLR,,0.00,WeatherDisplay:10.37,2013-06-15 10:46:00,
2013-06-15 05:51:00,81.5,77.6,29.91,SSE,148,8.0,11.5,88,0.00,CLR,,0.00,WeatherDisplay:10.37,2013-06-15 10:51:00,
2013-06-15 05:56:00,81.5,77.6,29.91,ESE,120,8.9,15.4,88,0.00,CLR,,0.00,WeatherDisplay:10.37,2013-06-15 10:56:00,
2013-06-15 06:02:00,81.5,77.6,29.92,SSE,150,9.7,18.4,88,0.00,CLR,,0.00,WeatherDisplay:10.37,2013-06-15 11:02:00,
2013-06-15 06:07:00,81.5,77.6,29.92,SSE,154,9.5,13.8,88,0.00,CLR,,0.00,WeatherDisplay:10.37,2013-06-15 11:07:00,
2013-06-15 06:12:00,81.5,77.3,29.92,SE,137,9.8,13.8,87,0.00,CLR,,0.00,WeatherDisplay:10.37,2013-06-15 11:12:00,
2013-06-15 06:17:00,81.5,77.3,29.92,SSE,154,8.3,15.0,87,0.00,CLR,,0.00,WeatherDisplay:10.37,2013-06-15 11:17:00,
2013-06-15 06:22:00,81.5,77.3,29.92,SSE,161,7.7,14.0,87,0.00,CLR,,0.00,WeatherDisplay:10.37,2013-06-15 11:22:00,
2013-06-15 06:27:00,81.6,77.7,29.92,SSE,152,7.4,11.8,88,0.00,CLR,,0.00,WeatherDisplay:10.37,2013-06-15 11:27:00,
2013-06-15 06:32:00,81.6,77.7,29.92,South,182,9.2,14.0,88,0.00,CLR,,0.00,WeatherDisplay:10.37,2013-06-15 11:32:00,
2013-06-15 06:37:00,81.5,77.6,29.92,SE,141,10.1,15.0,88,0.00,CLR,,0.00,WeatherDisplay:10.37,2013-06-15 11:37:00,
2013-06-15 06:42:00,81.6,77.7,29.92,SSE,147,9.6,15.0,88,0.00,CLR,,0.00,WeatherDisplay:10.37,2013-06-15 11:42:00,
2013-06-15 06:47:00,81.6,77.7,29.93,SSE,150,10.1,15.0,88,0.00,CLR,,0.00,WeatherDisplay:10.37,2013-06-15 11:47:00,
2013-06-15 06:52:00,81.6,78.0,29.93,South,186,9.5,15.0,89,0.00,CLR,,0.00,WeatherDisplay:10.37,2013-06-15 11:52:00,
2013-06-15 06:57:00,81.7,78.1,29.93,SSE,148,8.4,12.7,89,0.00,CLR,,0.00,WeatherDisplay:10.37,2013-06-15 11:57:00,
2013-06-15 07:02:00,81.6,77.7,29.93,SSE,147,10.3,15.0,88,0.00,CLR,,0.00,WeatherDisplay:10.37,2013-06-15 12:02:00,
2013-06-15 07:07:00,81.5,77.3,29.93,SE,137,10.4,16.0,87,0.00,CLR,,0.00,WeatherDisplay:10.37,2013-06-15 12:07:00,
2013-06-15 07:13:00,81.6,77.4,29.93,SE,134,10.1,17.3,87,0.00,CLR,,0.00,WeatherDisplay:10.37,2013-06-15 12:13:00,
2013-06-15 07:18:00,81.7,77.5,29.93,SSE,165,8.7,12.7,87,0.00,CLR,,0.00,WeatherDisplay:10.37,2013-06-15 12:18:00,
2013-06-15 07:23:00,81.8,77.5,29.94,SSE,168,7.3,11.5,87,0.00,CLR,,0.00,WeatherDisplay:10.37,2013-06-15 12:23:00,
2013-06-15 07:28:00,82.0,77.7,29.94,SSE,148,7.9,11.5,87,0.00,CLR,,0.00,WeatherDisplay:10.37,2013-06-15 12:28:00,
2013-06-15 07:33:00,82.0,77.7,29.94,SSE,158,8.3,13.8,87,0.00,CLR,,0.00,WeatherDisplay:10.37,2013-06-15 12:33:00,
2013-06-15 07:38:00,82.0,77.7,29.94,South,176,10.5,13.8,87,0.00,CLR,,0.00,WeatherDisplay:10.37,2013-06-15 12:38:00,
2013-06-15 07:43:00,82.1,77.8,29.95,SSE,162,7.4,11.5,87,0.00,CLR,,0.00,WeatherDisplay:10.37,2013-06-15 12:43:00,
2013-06-15 07:48:00,81.7,76.4,29.95,SSE,160,11.7,17.3,84,0.00,CLR,,0.00,WeatherDisplay:10.37,2013-06-15 12:48:00,
2013-06-15 07:53:00,82.1,76.8,29.95,South,178,10.7,13.6,84,0.00,CLR,,0.00,WeatherDisplay:10.37,2013-06-15 12:53:00,
2013-06-15 07:58:00,82.2,76.5,29.95,SE,144,11.8,16.4,83,0.00,CLR,,0.00,WeatherDisplay:10.37,2013-06-15 12:58:00,
2013-06-15 08:03:00,82.3,77.0,29.95,South,172,10.3,15.0,84,0.00,CLR,,0.00,WeatherDisplay:10.37,2013-06-15 13:03:00,
2013-06-15 08:08:00,82.3,77.0,29.95,SE,130,11.4,16.1,84,0.00,CLR,,0.00,WeatherDisplay:10.37,2013-06-15 13:08:00,
2013-06-15 08:13:00,82.5,77.2,29.95,SSE,157,9.8,17.3,84,0.00,CLR,,0.00,WeatherDisplay:10.37,2013-06-15 13:13:00,
2013-06-15 08:18:00,82.4,77.1,29.95,SSE,157,9.7,13.8,84,0.00,CLR,,0.00,WeatherDisplay:10.37,2013-06-15 13:18:00,
2013-06-15 08:23:00,82.5,77.2,29.95,ESE,116,10.6,14.0,84,0.00,CLR,,0.00,WeatherDisplay:10.37,2013-06-15 13:23:00,
2013-06-15 08:28:00,82.4,77.1,29.95,SSE,150,10.2,16.1,84,0.00,CLR,,0.00,WeatherDisplay:10.37,2013-06-15 13:28:00,
2013-06-15 08:33:00,82.4,76.7,29.96,SE,136,10.7,15.0,83,0.00,CLR,,0.00,WeatherDisplay:10.37,2013-06-15 13:33:00,
2013-06-15 08:38:00,82.7,77.4,29.96,South,184,7.2,11.9,84,0.00,CLR,,0.00,WeatherDisplay:10.37,2013-06-15 13:38:00,
2013-06-15 08:43:00,82.8,77.1,29.96,SSE,162,9.4,14.3,83,0.00,CLR,,0.00,WeatherDisplay:10.37,2013-06-15 13:43:00,
2013-06-15 08:48:00,83.1,77.4,29.97,South,171,7.2,12.7,83,0.00,CLR,,0.00,WeatherDisplay:10.37,2013-06-15 13:48:00,
2013-06-15 08:53:00,83.2,77.1,29.97,SSW,193,9.9,14.2,82,0.00,CLR,,0.00,WeatherDisplay:10.37,2013-06-15 13:53:00,
2013-06-15 08:58:00,83.2,77.1,29.97,SSW,209,7.9,13.8,82,0.00,CLR,,0.00,WeatherDisplay:10.37,2013-06-15 13:58:00,
2013-06-15 09:03:00,83.1,77.0,29.98,South,169,10.1,15.3,82,0.00,CLR,,0.00,WeatherDisplay:10.37,2013-06-15 14:03:00,
2013-06-15 09:09:00,83.1,77.0,29.97,SSE,152,9.1,12.7,82,0.00,CLR,,0.00,WeatherDisplay:10.37,2013-06-15 14:09:00,
2013-06-15 09:14:00,82.9,77.2,29.97,SSE,162,10.2,15.0,83,0.00,CLR,,0.00,WeatherDisplay:10.37,2013-06-15 14:14:00,
2013-06-15 09:19:00,82.9,77.6,29.97,SSE,165,9.6,11.5,84,0.00,CLR,,0.00,WeatherDisplay:10.37,2013-06-15 14:19:00,
2013-06-15 09:24:00,82.8,77.1,29.97,ESE,120,12.2,17.7,83,0.00,CLR,,0.00,WeatherDisplay:10.37,2013-06-15 14:24:00,
2013-06-15 09:29:00,82.9,76.8,29.97,ESE,113,11.7,17.3,82,0.00,CLR,,0.00,WeatherDisplay:10.37,2013-06-15 14:29:00,
2013-06-15 09:34:00,83.0,76.9,29.97,South,189,7.9,17.4,82,0.00,CLR,,0.00,WeatherDisplay:10.37,2013-06-15 14:34:00,
2013-06-15 09:39:00,83.1,77.0,29.97,SSE,160,8.7,16.1,82,0.00,CLR,,0.00,WeatherDisplay:10.37,2013-06-15 14:39:00,
2013-06-15 09:44:00,83.0,76.6,29.98,SE,130,10.5,15.7,81,0.00,CLR,,0.00,WeatherDisplay:10.37,2013-06-15 14:44:00,
2013-06-15 09:49:00,83.1,77.0,29.97,South,188,8.5,13.1,82,0.00,CLR,,0.00,WeatherDisplay:10.37,2013-06-15 14:49:00,
2013-06-15 09:54:00,82.9,77.2,29.97,SSE,167,8.9,12.7,83,0.00,CLR,,0.00,WeatherDisplay:10.37,2013-06-15 14:54:00,
2013-06-15 09:59:00,82.8,77.1,29.98,SSE,154,8.2,13.8,83,0.00,CLR,,0.00,WeatherDisplay:10.37,2013-06-15 14:59:00,
2013-06-15 10:04:00,82.7,77.0,29.98,South,184,10.2,16.1,83,0.00,CLR,,0.00,WeatherDisplay:10.37,2013-06-15 15:04:00,
2013-06-15 10:09:00,82.6,76.5,29.98,SSE,161,10.9,16.1,82,0.00,CLR,,0.00,WeatherDisplay:10.37,2013-06-15 15:09:00,
2013-06-15 10:14:00,82.5,76.8,29.98,SSE,165,7.7,17.3,83,0.00,CLR,,0.00,WeatherDisplay:10.37,2013-06-15 15:14:00,
2013-06-15 10:19:00,82.6,76.5,29.98,SSE,160,9.3,13.8,82,0.00,CLR,,0.00,WeatherDisplay:10.37,2013-06-15 15:19:00,
2013-06-15 10:24:00,82.7,77.0,29.98,SSE,151,8.5,13.8,83,0.00,CLR,,0.00,WeatherDisplay:10.37,2013-06-15 15:24:00,
2013-06-15 10:29:00,82.9,76.8,29.98,South,172,9.5,16.1,82,0.00,CLR,,0.00,WeatherDisplay:10.37,2013-06-15 15:29:00,
2013-06-15 10:34:00,83.1,76.7,29.98,SSE,155,8.0,16.1,81,0.00,CLR,,0.00,WeatherDisplay:10.37,2013-06-15 15:34:00,
2013-06-15 10:39:00,83.5,76.7,29.98,SSE,160,12.5,19.6,80,0.00,CLR,,0.00,WeatherDisplay:10.37,2013-06-15 15:39:00,
2013-06-15 10:44:00,83.6,76.0,29.98,SE,140,13.1,18.4,78,0.00,CLR,,0.00,WeatherDisplay:10.37,2013-06-15 15:44:00,
2013-06-15 10:49:00,83.9,75.9,29.98,SSE,152,10.3,15.0,77,0.00,,,0.00,WeatherDisplay:10.37,2013-06-15 15:49:00,
2013-06-15 10:54:00,84.1,76.1,29.98,SSE,150,11.5,17.3,77,0.00,,,0.00,WeatherDisplay:10.37,2013-06-15 15:54:00,
2013-06-15 10:59:00,84.1,75.7,29.98,SSE,164,10.3,26.5,76,0.00,,,0.00,WeatherDisplay:10.37,2013-06-15 15:59:00,
2013-06-15 11:04:00,84.3,75.5,29.98,South,176,10.8,17.3,75,0.00,CLR,,0.00,WeatherDisplay:10.37,2013-06-15 16:04:00,
2013-06-15 11:09:00,84.4,74.8,29.98,SSE,161,9.3,15.0,73,0.00,CLR,,0.00,WeatherDisplay:10.37,2013-06-15 16:09:00,
2013-06-15 11:14:00,84.6,75.4,29.98,SSE,154,10.1,12.7,74,0.00,CLR,,0.00,WeatherDisplay:10.37,2013-06-15 16:14:00,
2013-06-15 11:19:00,84.8,75.2,29.98,South,181,11.3,15.3,73,0.00,CLR,,0.00,WeatherDisplay:10.37,2013-06-15 16:19:00,
2013-06-15 11:24:00,85.0,74.5,29.98,South,189,9.8,16.1,71,0.00,CLR,,0.00,WeatherDisplay:10.37,2013-06-15 16:24:00,
2013-06-15 11:29:00,85.2,75.1,29.98,SE,141,7.3,17.3,72,0.00,CLR,,0.00,WeatherDisplay:10.37,2013-06-15 16:29:00,
2013-06-15 11:34:00,85.3,74.8,29.98,SSE,161,12.8,18.5,71,0.00,CLR,,0.00,WeatherDisplay:10.37,2013-06-15 16:34:00,
2013-06-15 11:39:00,85.2,74.7,29.98,South,171,12.4,18.4,71,0.00,CLR,,0.00,WeatherDisplay:10.37,2013-06-15 16:39:00,
2013-06-15 11:44:00,85.2,73.9,29.98,South,172,9.5,16.1,69,0.00,CLR,,0.00,WeatherDisplay:10.37,2013-06-15 16:44:00,
2013-06-15 11:49:00,85.5,74.2,29.98,SSE,157,9.0,15.2,69,0.00,CLR,,0.00,WeatherDisplay:10.37,2013-06-15 16:49:00,
2013-06-15 11:54:00,85.4,73.6,29.98,SSE,154,9.5,15.0,68,0.00,CLR,,0.00,WeatherDisplay:10.37,2013-06-15 16:54:00,
2013-06-15 11:59:00,85.5,73.7,29.98,SSE,155,9.7,13.6,68,0.00,CLR,,0.00,WeatherDisplay:10.37,2013-06-15 16:59:00,
2013-06-15 12:04:00,85.6,73.4,29.98,SSE,157,9.3,13.8,67,0.00,CLR,,0.00,WeatherDisplay:10.37,2013-06-15 17:04:00,
2013-06-15 12:09:00,86.0,73.8,29.98,SSE,150,10.8,15.8,67,0.00,CLR,,0.00,WeatherDisplay:10.37,2013-06-15 17:09:00,
2013-06-15 12:14:00,86.0,73.8,29.98,ESE,123,7.8,12.7,67,0.00,CLR,,0.00,WeatherDisplay:10.37,2013-06-15 17:14:00,
2013-06-15 12:19:00,86.0,73.3,29.98,South,169,9.2,11.5,66,0.00,CLR,,0.00,WeatherDisplay:10.37,2013-06-15 17:19:00,
2013-06-15 12:24:00,85.9,73.7,29.98,SSE,162,7.4,14.1,67,0.00,CLR,,0.00,WeatherDisplay:10.37,2013-06-15 17:24:00,
2013-06-15 12:29:00,85.9,73.7,29.97,SE,138,9.4,14.0,67,0.00,CLR,,0.00,WeatherDisplay:10.37,2013-06-15 17:29:00,
2013-06-15 12:34:00,85.9,73.2,29.97,SE,140,9.9,14.3,66,0.00,CLR,,0.00,WeatherDisplay:10.37,2013-06-15 17:34:00,
2013-06-15 12:39:00,86.3,74.0,29.97,SE,138,8.1,11.5,67,0.00,CLR,,0.00,WeatherDisplay:10.37,2013-06-15 17:39:00,
2013-06-15 12:44:00,86.4,74.1,29.97,SE,134,8.7,16.1,67,0.00,CLR,,0.00,WeatherDisplay:10.37,2013-06-15 17:44:00,
2013-06-15 12:49:00,86.5,74.2,29.97,SSE,158,8.6,12.7,67,0.00,CLR,,0.00,WeatherDisplay:10.37,2013-06-15 17:49:00,
2013-06-15 12:55:00,86.7,75.3,29.97,ESE,116,7.3,11.5,69,0.00,CLR,,0.00,WeatherDisplay:10.37,2013-06-15 17:55:00,
2013-06-15 13:00:00,86.9,74.6,29.97,ESE,109,6.2,10.4,67,0.00,CLR,,0.00,WeatherDisplay:10.37,2013-06-15 18:00:00,
2013-06-15 13:05:00,86.9,74.2,29.97,SE,133,8.7,12.7,66,0.00,CLR,,0.00,WeatherDisplay:10.37,2013-06-15 18:05:00,
2013-06-15 13:10:00,86.8,73.6,29.97,ESE,106,10.5,13.2,65,0.00,CLR,,0.00,WeatherDisplay:10.37,2013-06-15 18:10:00,
2013-06-15 13:15:00,87.1,73.4,29.97,South,181,7.7,13.8,64,0.00,CLR,,0.00,WeatherDisplay:10.37,2013-06-15 18:15:00,
2013-06-15 13:20:00,86.9,73.3,29.96,SE,140,8.0,16.1,64,0.00,CLR,,0.00,WeatherDisplay:10.37,2013-06-15 18:20:00,
2013-06-15 13:25:00,86.7,73.1,29.96,SE,137,9.3,13.9,64,0.00,CLR,,0.00,WeatherDisplay:10.37,2013-06-15 18:25:00,
2013-06-15 13:30:00,86.9,73.7,29.96,SE,144,9.3,15.0,65,0.00,CLR,,0.00,WeatherDisplay:10.37,2013-06-15 18:30:00,
2013-06-15 13:35:00,86.9,74.2,29.96,SSE,148,8.8,15.0,66,0.00,CLR,,0.00,WeatherDisplay:10.37,2013-06-15 18:35:00,
2013-06-15 13:40:00,87.0,74.7,29.96,ESE,121,8.8,14.3,67,0.00,CLR,,0.00,WeatherDisplay:10.37,2013-06-15 18:40:00,
2013-06-15 13:45:00,86.9,74.2,29.96,ENE,71,10.6,15.0,66,0.00,CLR,,0.00,WeatherDisplay:10.37,2013-06-15 18:45:00,
2013-06-15 13:50:00,86.8,74.1,29.96,SSE,160,9.7,12.7,66,0.00,CLR,,0.00,WeatherDisplay:10.37,2013-06-15 18:50:00,
2013-06-15 13:55:00,87.0,74.3,29.96,SE,141,7.8,16.3,66,0.00,CLR,,0.00,WeatherDisplay:10.37,2013-06-15 18:55:00,
2013-06-15 14:00:00,87.0,73.8,29.96,SSE,148,7.8,11.5,65,0.00,CLR,,0.00,WeatherDisplay:10.37,2013-06-15 19:00:00,
2013-06-15 14:05:00,86.8,74.1,29.95,East,93,6.0,13.8,66,0.00,CLR,,0.00,WeatherDisplay:10.37,2013-06-15 19:05:00,
2013-06-15 14:10:00,87.0,73.8,29.95,East,83,8.4,15.0,65,0.00,CLR,,0.00,WeatherDisplay:10.37,2013-06-15 19:10:00,
2013-06-15 14:15:00,87.2,73.1,29.95,SE,141,7.2,13.2,63,0.00,CLR,,0.00,WeatherDisplay:10.37,2013-06-15 19:15:00,
2013-06-15 14:20:00,87.3,72.2,29.95,SE,124,8.7,13.8,61,0.00,CLR,,0.00,WeatherDisplay:10.37,2013-06-15 19:20:00,
2013-06-15 14:25:00,87.5,72.9,29.95,South,172,7.9,15.0,62,0.00,CLR,,0.00,WeatherDisplay:10.37,2013-06-15 19:25:00,
2013-06-15 14:30:00,87.9,73.3,29.95,SSE,160,7.6,13.8,62,0.00,CLR,,0.00,WeatherDisplay:10.37,2013-06-15 19:30:00,
2013-06-15 14:35:00,87.9,73.3,29.95,SSE,150,9.1,13.8,62,0.00,CLR,,0.00,WeatherDisplay:10.37,2013-06-15 19:35:00,
2013-06-15 14:40:00,88.3,74.1,29.95,ESE,102,7.3,10.4,63,0.00,CLR,,0.00,WeatherDisplay:10.37,2013-06-15 19:40:00,
2013-06-15 14:45:00,88.2,72.6,29.95,ESE,106,8.3,10.9,60,0.00,CLR,,0.00,WeatherDisplay:10.37,2013-06-15 19:45:00,
2013-06-15 14:50:00,88.5,72.8,29.95,SE,137,7.1,9.2,60,0.00,CLR,,0.00,WeatherDisplay:10.37,2013-06-15 19:50:00,
2013-06-15 14:55:00,88.7,72.0,29.95,SE,140,7.7,12.2,58,0.00,CLR,,0.00,WeatherDisplay:10.37,2013-06-15 19:55:00,
2013-06-15 15:00:00,88.8,72.1,29.95,SE,130,7.4,9.8,58,0.00,CLR,,0.00,WeatherDisplay:10.37,2013-06-15 20:00:00,
2013-06-15 15:05:00,89.0,72.3,29.95,SSE,157,8.3,10.7,58,0.00,CLR,,0.00,WeatherDisplay:10.37,2013-06-15 20:05:00,
2013-06-15 15:10:00,88.9,71.7,29.95,SE,143,7.6,10.4,57,0.00,CLR,,0.00,WeatherDisplay:10.37,2013-06-15 20:10:00,
2013-06-15 15:15:00,88.9,71.7,29.94,ESE,116,8.2,12.4,57,0.00,CLR,,0.00,WeatherDisplay:10.37,2013-06-15 20:15:00,
2013-06-15 15:20:00,89.0,72.8,29.94,ESE,110,9.9,16.1,59,0.00,CLR,,0.00,WeatherDisplay:10.37,2013-06-15 20:20:00,
2013-06-15 15:25:00,89.2,72.0,29.94,SE,140,8.0,13.8,57,0.00,CLR,,0.00,WeatherDisplay:10.37,2013-06-15 20:25:00,
2013-06-15 15:30:00,89.2,71.5,29.94,SSE,160,8.4,13.8,56,0.00,CLR,,0.00,WeatherDisplay:10.37,2013-06-15 20:30:00,
2013-06-15 15:35:00,89.0,73.3,29.94,SE,124,9.8,14.7,60,0.00,CLR,,0.00,WeatherDisplay:10.37,2013-06-15 20:35:00,
2013-06-15 15:40:00,88.8,73.1,29.94,ESE,123,8.7,14.1,60,0.00,CLR,,0.00,WeatherDisplay:10.37,2013-06-15 20:40:00,
2013-06-15 15:45:00,88.7,72.5,29.93,SE,143,8.4,14.7,59,0.00,CLR,,0.00,WeatherDisplay:10.37,2013-06-15 20:45:00,
2013-06-15 15:50:00,88.6,72.4,29.93,ESE,114,8.6,13.8,59,0.00,CLR,,0.00,WeatherDisplay:10.37,2013-06-15 20:50:00,
2013-06-15 15:55:00,88.6,72.9,29.93,SE,136,8.3,16.1,60,0.00,CLR,,0.00,WeatherDisplay:10.37,2013-06-15 20:55:00,
2013-06-15 16:00:00,88.5,73.3,29.93,East,100,9.7,15.4,61,0.00,CLR,,0.00,WeatherDisplay:10.37,2013-06-15 21:00:00,
2013-06-15 16:05:00,88.4,72.2,29.93,SSE,150,10.2,16.1,59,0.00,CLR,,0.00,WeatherDisplay:10.37,2013-06-15 21:05:00,
2013-06-15 16:10:00,88.4,72.7,29.93,SE,138,8.7,13.8,60,0.00,CLR,,0.00,WeatherDisplay:10.37,2013-06-15 21:10:00,
2013-06-15 16:15:00,88.3,72.7,29.93,SE,131,8.1,12.7,60,0.00,CLR,,0.00,WeatherDisplay:10.37,2013-06-15 21:15:00,
2013-06-15 16:20:00,88.0,71.9,29.92,SE,124,7.3,15.8,59,0.00,CLR,,0.00,WeatherDisplay:10.37,2013-06-15 21:20:00,
2013-06-15 16:25:00,88.3,72.7,29.92,ESE,103,6.4,17.3,60,0.00,CLR,,0.00,WeatherDisplay:10.37,2013-06-15 21:25:00,
2013-06-15 16:30:00,88.4,73.7,29.92,ESE,107,8.1,11.5,62,0.00,CLR,,0.00,WeatherDisplay:10.37,2013-06-15 21:30:00,
2013-06-15 16:35:00,88.8,74.1,29.92,ESE,119,9.6,12.7,62,0.00,CLR,,0.00,WeatherDisplay:10.37,2013-06-15 21:35:00,
2013-06-15 16:40:00,89.2,73.0,29.92,SE,144,10.7,16.1,59,0.00,CLR,,0.00,WeatherDisplay:10.37,2013-06-15 21:40:00,
2013-06-15 16:45:00,89.4,73.2,29.92,ESE,120,12.4,16.1,59,0.00,CLR,,0.00,WeatherDisplay:10.37,2013-06-15 21:45:00,
2013-06-15 16:50:00,89.3,72.6,29.92,ESE,121,7.8,13.8,58,0.00,CLR,,0.00,WeatherDisplay:10.37,2013-06-15 21:50:00,
2013-06-15 16:55:00,89.1,72.9,29.92,ESE,117,9.0,16.1,59,0.00,CLR,,0.00,WeatherDisplay:10.37,2013-06-15 21:55:00,
2013-06-15 17:01:00,89.1,73.4,29.92,ESE,109,11.0,16.1,60,0.00,CLR,,0.00,WeatherDisplay:10.37,2013-06-15 22:01:00,
2013-06-15 17:06:00,89.0,72.8,29.91,ESE,110,10.7,16.7,59,0.00,CLR,,0.00,WeatherDisplay:10.37,2013-06-15 22:06:00,
2013-06-15 17:11:00,88.7,74.0,29.91,SE,124,9.7,17.3,62,0.00,CLR,,0.00,WeatherDisplay:10.37,2013-06-15 22:11:00,
2013-06-15 17:16:00,88.5,73.8,29.91,ESE,103,8.2,16.1,62,0.00,CLR,,0.00,WeatherDisplay:10.37,2013-06-15 22:16:00,
2013-06-15 17:21:00,88.5,73.8,29.91,SE,133,9.9,15.0,62,0.00,CLR,,0.00,WeatherDisplay:10.37,2013-06-15 22:21:00,
2013-06-15 17:26:00,88.5,73.8,29.91,ESE,102,8.5,15.0,62,0.00,CLR,,0.00,WeatherDisplay:10.37,2013-06-15 22:26:00,
2013-06-15 17:31:00,88.5,73.3,29.91,ESE,116,9.6,17.3,61,0.00,CLR,,0.00,WeatherDisplay:10.37,2013-06-15 22:31:00,
2013-06-15 17:36:00,88.3,72.7,29.91,SE,124,9.6,13.8,60,0.00,CLR,,0.00,WeatherDisplay:10.37,2013-06-15 22:36:00,
2013-06-15 17:41:00,88.6,72.9,29.91,ESE,104,7.4,15.2,60,0.00,CLR,,0.00,WeatherDisplay:10.37,2013-06-15 22:41:00,
2013-06-15 17:46:00,88.7,73.5,29.91,SE,127,8.8,12.7,61,0.00,CLR,,0.00,WeatherDisplay:10.37,2013-06-15 22:46:00,
2013-06-15 17:51:00,88.6,72.4,29.91,SE,126,9.2,16.5,59,0.00,CLR,,0.00,WeatherDisplay:10.37,2013-06-15 22:51:00,
2013-06-15 17:56:00,88.5,73.3,29.90,East,99,8.4,15.0,61,0.00,CLR,,0.00,WeatherDisplay:10.37,2013-06-15 22:56:00,
2013-06-15 18:01:00,88.1,72.5,29.91,SE,127,10.9,16.1,60,0.00,CLR,,0.00,WeatherDisplay:10.37,2013-06-15 23:01:00,
2013-06-15 18:06:00,87.9,73.3,29.91,ESE,103,6.9,13.8,62,0.00,CLR,,0.00,WeatherDisplay:10.37,2013-06-15 23:06:00,
2013-06-15 18:11:00,87.5,72.4,29.90,SSE,150,9.9,17.3,61,0.00,CLR,,0.00,WeatherDisplay:10.37,2013-06-15 23:11:00,
2013-06-15 18:17:00,87.6,73.0,29.91,ESE,104,8.3,13.8,62,0.00,CLR,,0.00,WeatherDisplay:10.37,2013-06-15 23:17:00,
2013-06-15 18:22:00,87.4,73.7,29.91,ESE,114,9.2,17.3,64,0.00,CLR,,0.00,WeatherDisplay:10.37,2013-06-15 23:22:00,
2013-06-15 18:27:00,87.3,74.5,29.91,SSE,165,9.4,15.0,66,0.00,CLR,,0.00,WeatherDisplay:10.37,2013-06-15 23:27:00,
2013-06-15 18:32:00,86.9,72.8,29.91,ESE,119,9.3,15.0,63,0.00,CLR,,0.00,WeatherDisplay:10.37,2013-06-15 23:32:00,
2013-06-15 18:37:00,86.5,72.9,29.90,SE,134,10.3,16.1,64,0.00,CLR,,0.00,WeatherDisplay:10.37,2013-06-15 23:37:00,
2013-06-15 18:42:00,86.3,74.0,29.90,ESE,123,11.4,18.4,67,0.00,CLR,,0.00,WeatherDisplay:10.37,2013-06-15 23:42:00,
2013-06-15 18:47:00,86.3,74.5,29.90,ESE,102,11.8,17.8,68,0.00,CLR,,0.00,WeatherDisplay:10.37,2013-06-15 23:47:00,
2013-06-15 18:52:00,86.2,74.0,29.90,ESE,120,9.2,16.1,67,0.00,CLR,,0.00,WeatherDisplay:10.37,2013-06-15 23:52:00,
2013-06-15 18:57:00,86.3,74.9,29.91,ESE,107,11.8,18.4,69,0.00,CLR,,0.00,WeatherDisplay:10.37,2013-06-15 23:57:00,
2013-06-15 19:02:00,86.1,75.2,29.91,ESE,123,9.9,16.1,70,0.00,CLR,,0.00,WeatherDisplay:10.37,2013-06-16 00:02:00,
2013-06-15 19:07:00,85.8,74.4,29.91,East,100,9.5,18.4,69,0.00,CLR,,0.00,WeatherDisplay:10.37,2013-06-16 00:07:00,
2013-06-15 19:12:00,85.7,75.6,29.91,East,86,9.3,15.0,72,0.00,CLR,,0.00,WeatherDisplay:10.37,2013-06-16 00:12:00,
2013-06-15 19:17:00,85.5,75.4,29.91,SE,134,10.9,16.1,72,0.00,CLR,,0.00,WeatherDisplay:10.37,2013-06-16 00:17:00,
2013-06-15 19:22:00,85.4,75.8,29.91,ESE,112,8.3,15.0,73,0.00,CLR,,0.00,WeatherDisplay:10.37,2013-06-16 00:22:00,
2013-06-15 19:27:00,85.1,75.1,29.91,SE,126,12.1,17.3,72,0.00,CLR,,0.00,WeatherDisplay:10.37,2013-06-16 00:27:00,
2013-06-15 19:32:00,84.9,75.3,29.91,SE,131,11.6,18.4,73,0.00,CLR,,0.00,WeatherDisplay:10.37,2013-06-16 00:32:00,
2013-06-15 19:37:00,84.7,75.5,29.91,East,88,11.8,20.7,74,0.00,CLR,,0.00,WeatherDisplay:10.37,2013-06-16 00:37:00,
2013-06-15 19:42:00,84.6,75.8,29.91,East,95,8.9,17.3,75,0.00,CLR,,0.00,WeatherDisplay:10.37,2013-06-16 00:42:00,
2013-06-15 19:47:00,84.4,75.6,29.92,ESE,119,12.6,20.7,75,0.00,CLR,,0.00,WeatherDisplay:10.37,2013-06-16 00:47:00,
2013-06-15 19:52:00,84.4,76.0,29.92,SSE,154,10.2,17.3,76,0.00,CLR,,0.00,WeatherDisplay:10.37,2013-06-16 00:52:00,
2013-06-15 19:57:00,84.1,75.7,29.92,ESE,117,11.6,16.1,76,0.00,CLR,,0.00,WeatherDisplay:10.37,2013-06-16 00:57:00,
2013-06-15 20:02:00,84.2,76.6,29.92,ESE,113,8.5,12.7,78,0.00,CLR,,0.00,WeatherDisplay:10.37,2013-06-16 01:02:00,
2013-06-15 20:07:00,84.1,75.7,29.92,SSE,162,11.0,16.1,76,0.00,CLR,,0.00,WeatherDisplay:10.37,2013-06-16 01:07:00,
2013-06-15 20:12:00,83.9,76.3,29.92,ESE,119,9.5,16.8,78,0.00,CLR,,0.00,WeatherDisplay:10.37,2013-06-16 01:12:00,
2013-06-15 20:17:00,83.7,76.5,29.92,SE,130,12.3,18.4,79,0.00,CLR,,0.00,WeatherDisplay:10.37,2013-06-16 01:17:00,
2013-06-15 20:22:00,83.4,76.2,29.92,SE,144,12.0,17.3,79,0.00,CLR,,0.00,WeatherDisplay:10.37,2013-06-16 01:22:00,
2013-06-15 20:27:00,83.5,76.7,29.92,ESE,123,11.2,19.6,80,0.00,CLR,,0.00,WeatherDisplay:10.37,2013-06-16 01:27:00,
2013-06-15 20:32:00,83.4,76.6,29.91,SE,140,11.9,19.5,80,0.00,CLR,,0.00,WeatherDisplay:10.37,2013-06-16 01:32:00,
2013-06-15 20:37:00,83.5,77.1,29.92,SE,128,8.6,18.4,81,0.00,CLR,,0.00,WeatherDisplay:10.37,2013-06-16 01:37:00,
2013-06-15 20:42:00,83.4,77.3,29.92,SE,130,10.2,18.4,82,0.00,CLR,,0.00,WeatherDisplay:10.37,2013-06-16 01:42:00,
2013-06-15 20:47:00,83.3,77.2,29.92,SSE,164,10.0,19.6,82,0.00,CLR,,0.00,WeatherDisplay:10.37,2013-06-16 01:47:00,
2013-06-15 20:52:00,83.1,77.0,29.92,ESE,117,9.3,19.6,82,0.00,CLR,,0.00,WeatherDisplay:10.37,2013-06-16 01:52:00,
2013-06-15 20:57:00,82.9,76.5,29.92,South,171,11.2,18.8,81,0.00,CLR,,0.00,WeatherDisplay:10.37,2013-06-16 01:57:00,
2013-06-15 21:02:00,82.9,76.8,29.92,SE,141,11.7,18.5,82,0.00,CLR,,0.00,WeatherDisplay:10.37,2013-06-16 02:02:00,
2013-06-15 21:07:00,82.9,76.8,29.92,SE,137,12.8,20.7,82,0.00,CLR,,0.00,WeatherDisplay:10.37,2013-06-16 02:07:00,
2013-06-15 21:12:00,83.1,77.4,29.92,SE,126,9.3,13.8,83,0.00,CLR,,0.00,WeatherDisplay:10.37,2013-06-16 02:12:00,
2013-06-15 21:17:00,82.9,76.8,29.92,SE,137,11.9,17.8,82,0.00,CLR,,0.00,WeatherDisplay:10.37,2013-06-16 02:17:00,
2013-06-15 21:22:00,82.9,76.8,29.93,SSE,151,10.3,18.4,82,0.00,CLR,,0.00,WeatherDisplay:10.37,2013-06-16 02:22:00,
2013-06-15 21:27:00,82.9,76.8,29.93,SE,131,11.7,20.0,82,0.00,CLR,,0.00,WeatherDisplay:10.37,2013-06-16 02:27:00,
2013-06-15 21:32:00,82.8,76.7,29.93,SSE,167,11.4,13.8,82,0.00,CLR,,0.00,WeatherDisplay:10.37,2013-06-16 02:32:00,
2013-06-15 21:37:00,83.0,77.3,29.93,SE,124,9.9,18.4,83,0.00,CLR,,0.00,WeatherDisplay:10.37,2013-06-16 02:37:00,
2013-06-15 21:42:00,82.9,77.2,29.94,South,169,11.5,18.5,83,0.00,CLR,,0.00,WeatherDisplay:10.37,2013-06-16 02:42:00,
2013-06-15 21:47:00,83.0,77.3,29.94,South,169,11.0,17.3,83,0.00,CLR,,0.00,WeatherDisplay:10.37,2013-06-16 02:47:00,
2013-06-15 21:53:00,82.9,77.6,29.94,ESE,110,10.1,15.0,84,0.00,CLR,,0.00,WeatherDisplay:10.37,2013-06-16 02:53:00,
2013-06-15 21:58:00,83.0,77.7,29.94,SE,141,10.1,18.4,84,0.00,CLR,,0.00,WeatherDisplay:10.37,2013-06-16 02:58:00,
2013-06-15 22:03:00,82.8,77.1,29.94,SSE,151,9.8,17.3,83,0.00,CLR,,0.00,WeatherDisplay:10.37,2013-06-16 03:03:00,
2013-06-15 22:08:00,82.8,77.1,29.95,East,97,11.3,16.1,83,0.00,CLR,,0.00,WeatherDisplay:10.37,2013-06-16 03:08:00,
2013-06-15 22:13:00,82.8,77.1,29.95,SSE,148,10.5,17.8,83,0.00,CLR,,0.00,WeatherDisplay:10.37,2013-06-16 03:13:00,
2013-06-15 22:18:00,82.9,77.2,29.95,SE,130,8.3,12.7,83,0.00,CLR,,0.00,WeatherDisplay:10.37,2013-06-16 03:18:00,
2013-06-15 22:23:00,82.8,77.1,29.95,East,86,9.9,16.1,83,0.00,CLR,,0.00,WeatherDisplay:10.37,2013-06-16 03:23:00,
2013-06-15 22:28:00,82.8,77.5,29.95,SSE,167,8.8,16.1,84,0.00,CLR,,0.00,WeatherDisplay:10.37,2013-06-16 03:28:00,
2013-06-15 22:33:00,82.7,77.0,29.95,ESE,106,11.7,19.6,83,0.00,CLR,,0.00,WeatherDisplay:10.37,2013-06-16 03:33:00,
2013-06-15 22:38:00,82.8,77.5,29.96,SE,128,11.0,17.3,84,0.00,CLR,,0.00,WeatherDisplay:10.37,2013-06-16 03:38:00,
2013-06-15 22:43:00,82.6,76.5,29.96,SE,144,13.2,21.9,82,0.00,CLR,,0.00,WeatherDisplay:10.37,2013-06-16 03:43:00,
2013-06-15 22:48:00,82.6,76.9,29.96,SSE,165,10.6,18.4,83,0.00,CLR,,0.00,WeatherDisplay:10.37,2013-06-16 03:48:00,
2013-06-15 22:53:00,82.6,76.9,29.96,SSE,164,11.1,19.6,83,0.00,CLR,,0.00,WeatherDisplay:10.37,2013-06-16 03:53:00,
2013-06-15 22:58:00,82.7,77.4,29.96,SSE,162,9.3,13.8,84,0.00,CLR,,0.00,WeatherDisplay:10.37,2013-06-16 03:58:00,
2013-06-15 23:01:00,82.7,77.4,29.96,SSE,154,9.3,15.0,84,0.00,CLR,,0.00,WeatherDisplay:10.37,2013-06-16 04:01:00,
2013-06-15 23:02:00,82.7,77.7,29.96,SE,137,8.2,13.9,85,0.00,CLR,,0.00,WeatherDisplay:10.37,2013-06-16 04:02:00,
2013-06-15 23:05:00,82.6,77.3,29.96,SSE,148,11.0,19.6,84,0.00,CLR,,0.00,WeatherDisplay:10.37,2013-06-16 04:05:00,
2013-06-15 23:10:00,82.5,76.8,29.96,SSE,147,12.1,17.3,83,0.00,CLR,,0.00,WeatherDisplay:10.37,2013-06-16 04:10:00,
2013-06-15 23:15:00,82.6,76.9,29.96,SE,131,18.4,18.4,83,0.00,CLR,,0.00,WeatherDisplay:10.37,2013-06-16 04:15:00,
2013-06-15 23:20:00,82.8,77.8,29.96,East,95,10.0,18.4,85,0.00,,,0.00,WeatherDisplay:10.37,2013-06-16 04:20:00,
2013-06-15 23:25:00,82.6,77.6,29.96,SE,126,9.9,16.1,85,0.00,,,0.00,WeatherDisplay:10.37,2013-06-16 04:25:00,
2013-06-15 23:30:00,82.5,77.2,29.96,SSE,165,12.5,18.4,84,0.00,,,0.00,WeatherDisplay:10.37,2013-06-16 04:30:00,
2013-06-15 23:35:00,82.5,77.5,29.96,ESE,113,11.4,15.0,85,0.00,CLR,,0.00,WeatherDisplay:10.37,2013-06-16 04:35:00,
2013-06-15 23:40:00,82.6,77.6,29.96,ESE,123,11.2,15.5,85,0.00,CLR,,0.00,WeatherDisplay:10.37,2013-06-16 04:40:00,
2013-06-15 23:45:00,82.6,77.6,29.96,ESE,102,9.3,16.1,85,0.00,CLR,,0.00,WeatherDisplay:10.37,2013-06-16 04:45:00,
2013-06-15 23:50:00,82.5,77.5,29.96,SE,145,12.0,18.1,85,0.00,CLR,,0.00,WeatherDisplay:10.37,2013-06-16 04:50:00,
2013-06-15 23:55:00,82.6,78.0,29.96,SSE,161,9.6,15.0,86,0.00,CLR,,0.00,WeatherDisplay:10.37,2013-06-16 04:55:00,